EYPA

Palanga International Airport

Palanga, Lithuania
METAR EYPA 211320Z 24007KT 190V280 9999 FEW010 23/19 Q1010
Observed Flight Rules
Jul-21 @ 13:20 UTC (34 minutes ago) Visual Flight Rules
Wind Visibility Clouds
240° at 7 knots 10,000+ meters
  • Few at 1,000' AGL
Temperatures Readings
Current 23°C / 73°F
Dewpoint 19°C / 66°F
Humidity 78%
Altimeter 29.82" Hg
Pressure 1010 hPa
Elevation 10
METAR EYPA 211320Z 24007KT 190V280 9999 FEW010 23/19 Q1010
Observed Flight Rules
Jul-21 @ 13:20 UTC
(34 minutes ago)
VFR
Wind Visibility
240° at 7 knots 10,000+ meters
Clouds
  • Few at 1,000' AGL
Temperature Dewpoint
23°C / 73°F 19°C / 66°F
Humidity Altimeter Pressure
78% 29.82" Hg 1010 hPa